RJTTRPLL

Guest
Details From RJTT - Tokyo Haneda Intl
To RPLL - Ninoy Aquino International Airport
Flight Number -
Tags generated
Created
Modified
Stats Distance 1,641 nm / 3,040 km
Max Altitude 35,000 ft / 10,668 m
Waypoints 17
Social Downloads 0
Likes 0
Share VATSIM

Download

Looking for another format? Having issues loading an existing format? Contact us
Advertisement - Login to hide

Notes

Basic altitude profile: - Ascent Rate: 2500ft/min - Ascent Speed: 250kts - Cruise Altitude: 40000ft - Cruise Speed: 420kts - Descent Rate: 1500ft/min - Descent Speed: 250kts Options: - Use NATs: yes - Use PACOTS: yes - Use low airways: yes - Use high airways: yes

Route

RJTT SETSU Y21 CELLO BANJO SAKAK W28 SOPHY Y571 JERID Y57 TIC A582 ELMAS W18 ADNIM RPLL

ID Type Via Altitude (ft/m) Position (lat/lon) Dist (leg/tot) Name
O RJTT APT - 0 / 0 35.54825 / 139.78855 - / 0 nm Tokyo Haneda Intl
SETSU FIX - 35,000 / 10,668 34.22225 / 138.37891 105 / 105 nm
CELLO FIX Y21 (AWY-LO) 35,000 / 10,668 33.99861 / 137.92017 26 / 132 nm
BANJO FIX - 35,000 / 10,668 33.83692 / 137.85969 10 / 142 nm
SAKAK FIX - 35,000 / 10,668 33.72008 / 137.79701 7 / 149 nm
SOPHY FIX W28 (AWY-LO) 35,000 / 10,668 33.45410 / 137.36577 26 / 176 nm
JERID FIX Y571 (AWY-LO) 35,000 / 10,668 32.46314 / 136.21958 82 / 259 nm
NIKAI FIX Y57 (AWY-LO) 35,000 / 10,668 31.87499 / 135.31611 57 / 317 nm
SHIBK FIX Y57 (AWY-LO) 35,000 / 10,668 29.65402 / 132.08060 213 / 531 nm
TAMAK FIX Y57 (AWY-LO) 35,000 / 10,668 27.53141 / 129.09819 202 / 733 nm
TIC VOR Y57 (AWY-LO) 35,000 / 10,668 26.16086 / 127.80083 107 / 841 nm CHINEN VORTAC
SAKON FIX A582 (AWY-LO) 35,000 / 10,668 24.12089 / 126.69817 136 / 977 nm
BISIG FIX A582 (AWY-LO) 35,000 / 10,668 21.00453 / 125.26500 203 / 1181 nm
ELMAS FIX A582 (AWY-LO) 35,000 / 10,668 20.44959 / 125.00016 36 / 1217 nm
NODAB FIX W18 (AWY-LO) 23,300 / 7,102 16.04521 / 122.02201 314 / 1532 nm
ADNIM FIX W18 (AWY-LO) 12,900 / 3,932 15.35761 / 121.57240 48 / 1580 nm
O RPLL APT - 0 / 0 14.51151 / 121.01272 60 / 1641 nm Ninoy Aquino International Airport

Altitude Profile

Advertisement - Login to hide

Weather


0- 5 10 15 20 25 30 35+ Temperature / °C

Clouds and Precipitation
Forecast for 2018-09-26 00:00 UTC. Updated 2 hours ago

Ground ~20,000 ft ~40,000 ft Winds

RJTT

Details ICAO RJTT (HND)
Name Tokyo International Airport
Region Japan
Timezone Asia/Tokyo (UTC+9.0)
Stats Elevation 20 ft / 6 m (AMSL)
Location 35.547900° 139.789000°
Runways 4
Magnetic Variation 7.471° W

METAR

RJTT 252300Z 36012KT 9999 FEW006 SCT009 BKN012 19/17 Q1018 NOSIG

Decode

TAF

TAF AMD RJTT 252212Z 2522/2700 04018KT 9999 FEW010 BKN020 TEMPO 2522/2600 4000 -SHRA BR FEW005 BKN008 BECMG 2606/2609 4000 -SHRA BR FEW005 BKN008 TEMPO 2609/2615 3000 SHRA BR BECMG 2618/2621 6000 -SHRA FEW008 BKN012

Decode

Departure Runways

ID Width Length Bearing (true/mag) Surface Threshold Overrun Markings Lighting
04 200 ft / 61 m 8,199 ft / 2,499 m 34.82° / 42.30° ASPHALT 0 ft / 0 m 200 ft / 61 m PREC-APP CENTERLINE EDGE THRESHOLD REIL-OMNI
05 200 ft / 61 m 8,202 ft / 2,500 m 42.42° / 49.89° ASPHALT 0 ft / 0 m 194 ft / 59 m PREC-APP CENTERLINE EDGE THRESHOLD REIL-OMNI
16L 200 ft / 61 m 11,053 ft / 3,369 m 149.98° / 157.45° ASPHALT 0 ft / 0 m 194 ft / 59 m PREC-APP CENTERLINE EDGE THRESHOLD SSALF REIL-OMNI
16R 200 ft / 61 m 9,853 ft / 3,003 m 150.02° / 157.49° ASPHALT 0 ft / 0 m 0 ft / 0 m PREC-APP CENTERLINE EDGE THRESHOLD SSALF REIL-OMNI
22 200 ft / 61 m 8,199 ft / 2,499 m 214.83° / 222.30° ASPHALT 0 ft / 0 m 197 ft / 60 m PREC-APP CENTERLINE EDGE THRESHOLD ALSF-I TDZ REIL-OMNI
23 200 ft / 61 m 8,202 ft / 2,500 m 222.43° / 229.90° ASPHALT 0 ft / 0 m 200 ft / 61 m PREC-APP CENTERLINE EDGE THRESHOLD ALSF-I TDZ REIL-OMNI
34L 200 ft / 61 m 9,853 ft / 3,003 m 330.03° / 337.50° ASPHALT 0 ft / 0 m 207 ft / 63 m PREC-APP CENTERLINE EDGE THRESHOLD ALSF-I TDZ REIL-OMNI
34R 200 ft / 61 m 11,053 ft / 3,369 m 329.99° / 337.46° ASPHALT 1,877 ft / 572 m 220 ft / 67 m PREC-APP CENTERLINE EDGE THRESHOLD ALSF-II TDZ REIL-OMNI

RPLL

Details ICAO RPLL (MNL)
Name Manila Ninoy Aquino International
Region Philippines
Timezone Asia/Manila (UTC+8.0)
Stats Elevation 75 ft / 23 m (AMSL)
Location 14.511700° 121.013000°
Runways 2
Magnetic Variation 2.233° W

METAR

RPLL 252200Z 32006KT 280V340 9999 FEW025 BKN300 28/27 Q1005 NOSIG RMK A2968 METAR RPLB 252200Z VRB01KT 9999 FEW020 BKN300 26/24 Q1006 NOSIG RMK A2971 METAR RPVM 252200Z 24007KT 9999 FEW020 OVC250 27/23 Q1007 NOSIG RMK A2974 METAR RPMD 252200Z 09003KT 9999 FEW016 25/24 Q1009 RMK A2980 METAR RPMZ 252200Z 27006KT 4000 -RA SCT015 OVC080 25/25 Q1007 RMK A2974

Decode

TAF

TAF RPLL 251700Z 2518/2624 26008KT 9999 FEW025 BKN300 TX32/2606Z TN26/2521Z TEMPO 2518/2524 30005KT FEW025 BKN100 TEMPO 2606/2612 25016KT 9000 -SHRA FEW022CB SCT023 BKN090

Decode

Destination Runways

ID Width Length Bearing (true/mag) Surface Threshold Overrun Markings Lighting
06 211 ft / 64 m 11,198 ft / 3,413 m 60.14° / 62.37° ASPHALT 0 ft / 0 m 417 ft / 127 m PREC-APP CENTERLINE EDGE THRESHOLD SSALF REIL-OMNI
13 151 ft / 46 m 6,561 ft / 2,000 m 134.84° / 137.07° ASPHALT 505 ft / 154 m 0 ft / 0 m PREC-APP CENTERLINE EDGE THRESHOLD TDZ REIL-OMNI
24 211 ft / 64 m 11,198 ft / 3,413 m 240.15° / 242.38° ASPHALT 0 ft / 0 m 453 ft / 138 m PREC-APP CENTERLINE EDGE THRESHOLD SSALF REIL-OMNI
31 151 ft / 46 m 6,561 ft / 2,000 m 314.84° / 317.07° ASPHALT 436 ft / 133 m 0 ft / 0 m PREC-APP CENTERLINE EDGE THRESHOLD

Approach Navaids

Runway Type Ident Frequency Range Bearing (true/mag) Slope Elevation
06 DME IML 109.10 MHz 18 nm / 33 km - - 50 ft / 15 m (AMSL)
06 LOC-ILS IML 109.10 MHz 18 nm / 33 km 60.14° / 62.37 ° - 75 ft / 23 m (AMSL)
06 GS IML 109.10 MHz 10 nm / 19 km 60.14° / 62.37 ° 3.01° 75 ft / 23 m (AMSL)
24 DME IMA 109.90 MHz 18 nm / 33 km - - 50 ft / 15 m (AMSL)
24 LOC-ILS IMA 109.90 MHz 18 nm / 33 km 240.14° / 242.37 ° - 75 ft / 23 m (AMSL)
24 GS IMA 109.90 MHz 10 nm / 19 km 240.14° / 242.37 ° 3.06° 75 ft / 23 m (AMSL)

Popular Alternatives